New York, New York
Current Conditions -  °F | °C
As of 10:15 PM on Monday 26 Jan 2015 (Local Time) from KJRB Reporting Station
Overcast Overcast  
Wind Chill: -8°   Ceiling: 1600
Heat Index: -2°   Visibility: 3mi
Dew Point: -3°   Wind: 14mph
Humidity: 93%   Direction: 50°NE
Pressure: 29.74"   Gusts: 26mph
Location:  40.71°N, 74.01°W
Report Text: KJRB 270315Z AUTO 05012G23KT 3SM OVC016 M02/M03 A2974 RMK AO1
Loading
Personal Weather Stations






























Interactive Weather Map New forecast layout! Learn more

10-Day Weather Forecast

Advertisements
Track Severe Weather on mobile